Time;durP1;ratioP1;P1;durP2;ratioP2;P2;SDS_P1;SDS_P2;PMS_P1;PMS_P2;Temp;Humidity;BMP_temperature;BMP_pressure;BME280_temperature;BME280_humidity;BME280_pressure;Samples;Min_cycle;Max_cycle;Signal;HPM_P1;HPM_P2
2021/11/27 00:00:46;;;;;;;9.75;5.55;;;;;;;-0.61;100.00;94324.41;4971217;28;20039;-62
2021/11/27 00:03:12;;;;;;;11.48;5.70;;;;;;;-0.65;100.00;94315.47;4971621;28;20039;-64
2021/11/27 00:05:38;;;;;;;12.73;5.97;;;;;;;-0.61;100.00;94319.00;4969837;28;20046;-63
2021/11/27 00:08:08;;;;;;;9.50;5.82;;;;;;;-0.55;100.00;94313.38;4969466;28;20074;-65
2021/11/27 00:10:35;;;;;;;7.57;4.15;;;;;;;-0.51;100.00;94304.22;4981554;28;20044;-59
2021/11/27 00:13:01;;;;;;;10.45;5.85;;;;;;;-0.41;100.00;94305.56;4964273;28;20182;-59
2021/11/27 00:15:28;;;;;;;8.27;5.00;;;;;;;-0.23;100.00;94292.47;4959745;28;20104;-63
2021/11/27 00:17:56;;;;;;;8.23;4.22;;;;;;;0.01;100.00;94298.66;4959159;28;20059;-62
2021/11/27 00:20:30;;;;;;;8.95;4.82;;;;;;;0.21;100.00;94288.63;4954615;28;20046;-61
2021/11/27 00:22:55;;;;;;;6.85;3.80;;;;;;;0.30;100.00;94284.53;4956243;28;20038;-64
2021/11/27 00:25:21;;;;;;;8.27;4.50;;;;;;;0.34;100.00;94279.22;4964203;28;20062;-62
2021/11/27 00:27:47;;;;;;;8.63;4.03;;;;;;;0.29;100.00;94268.72;4963051;28;20041;-61
2021/11/27 00:30:17;;;;;;;6.32;3.97;;;;;;;0.23;100.00;94265.56;4961472;28;20035;-62
2021/11/27 00:32:43;;;;;;;7.10;4.00;;;;;;;0.12;100.00;94253.84;4967990;28;20148;-60
2021/11/27 00:35:09;;;;;;;7.90;5.03;;;;;;;0.04;100.00;94249.47;4955913;28;20062;-60
2021/11/27 00:37:34;;;;;;;7.28;4.57;;;;;;;0.08;100.00;94256.50;4961210;28;20035;-58
2021/11/27 00:40:00;;;;;;;7.93;4.53;;;;;;;-0.02;100.00;94244.41;4963297;28;20078;-61
2021/11/27 00:42:25;;;;;;;6.45;4.50;;;;;;;-0.24;100.00;94243.25;4959181;28;20039;-63
2021/11/27 00:44:51;;;;;;;9.07;4.68;;;;;;;-0.36;100.00;94237.25;4964106;28;20496;-61
2021/11/27 00:47:17;;;;;;;7.82;4.80;;;;;;;-0.50;100.00;94233.19;4959592;28;20039;-62
2021/11/27 00:49:43;;;;;;;9.32;4.80;;;;;;;-0.64;100.00;94224.84;4961767;28;20066;-62
2021/11/27 00:52:08;;;;;;;8.40;4.88;;;;;;;-0.71;100.00;94227.41;4955629;28;20039;-63
2021/11/27 00:54:34;;;;;;;8.73;5.43;;;;;;;-0.79;100.00;94218.44;4962024;28;20059;-62
2021/11/27 00:56:59;;;;;;;7.97;5.05;;;;;;;-0.87;100.00;94220.19;4962224;28;20395;-61
2021/11/27 00:59:25;;;;;;;9.30;5.82;;;;;;;-0.94;100.00;94211.19;4959214;28;20453;-61
2021/11/27 01:01:50;;;;;;;9.20;4.70;;;;;;;-0.91;100.00;94197.06;4969068;28;20514;-59
2021/11/27 01:04:16;;;;;;;12.52;5.18;;;;;;;-0.96;100.00;94203.50;4951775;28;20600;-61
2021/11/27 01:06:41;;;;;;;10.35;5.40;;;;;;;-1.09;100.00;94194.78;4967047;28;20042;-59
2021/11/27 01:09:12;;;;;;;8.77;5.28;;;;;;;-1.20;100.00;94199.94;4958154;28;20081;-64
2021/11/27 01:11:42;;;;;;;9.35;5.60;;;;;;;-1.24;100.00;94192.94;4961999;28;20058;-58
2021/11/27 01:14:12;;;;;;;9.95;5.78;;;;;;;-1.25;100.00;94197.53;4950129;28;20070;-60
2021/11/27 01:16:41;;;;;;;10.27;5.53;;;;;;;-1.20;100.00;94188.44;4969796;28;20046;-62
2021/11/27 01:19:10;;;;;;;12.00;5.55;;;;;;;-1.13;100.00;94182.41;4948708;28;20063;-62
2021/11/27 01:21:39;;;;;;;11.43;5.93;;;;;;;-1.18;100.00;94183.47;4961461;28;20046;-64
2021/11/27 01:24:10;;;;;;;9.77;5.53;;;;;;;-1.20;100.00;94180.38;4958586;28;20035;-66
2021/11/27 01:26:36;;;;;;;10.77;5.63;;;;;;;-1.32;100.00;94178.59;4961408;28;20057;-63
2021/11/27 01:29:03;;;;;;;13.05;6.15;;;;;;;-1.49;100.00;94170.97;4961302;28;20119;-67
2021/11/27 01:31:28;;;;;;;9.45;6.10;;;;;;;-1.61;100.00;94169.94;4960608;28;20054;-62
2021/11/27 01:33:55;;;;;;;11.57;6.07;;;;;;;-1.67;100.00;94165.19;4957500;28;20046;-61
2021/11/27 01:36:20;;;;;;;10.52;6.03;;;;;;;-1.75;100.00;94164.25;4956536;28;20583;-61
2021/11/27 01:38:46;;;;;;;11.50;6.53;;;;;;;-1.72;100.00;94163.56;4969432;28;20047;-60
2021/11/27 01:41:14;;;;;;;12.23;5.72;;;;;;;-1.77;100.00;94166.50;4961060;28;20035;-64
2021/11/27 01:43:41;;;;;;;10.10;6.30;;;;;;;-1.73;100.00;94164.66;4957989;28;20159;-62
2021/11/27 01:46:07;;;;;;;9.93;6.18;;;;;;;-1.73;100.00;94165.47;4956968;28;20499;-61
2021/11/27 01:48:33;;;;;;;16.13;6.22;;;;;;;-1.70;100.00;94157.84;4963537;28;20162;-63
2021/11/27 01:51:02;;;;;;;12.15;7.00;;;;;;;-1.76;100.00;94168.06;4966888;28;20046;-59
2021/11/27 01:53:31;;;;;;;10.57;6.38;;;;;;;-1.62;100.00;94160.34;4968057;28;20187;-61
2021/11/27 01:56:00;;;;;;;9.73;5.38;;;;;;;-1.71;100.00;94158.97;4965392;28;20518;-62
2021/11/27 01:58:27;;;;;;;10.15;5.40;;;;;;;-1.81;100.00;94153.00;4956553;28;20047;-61
2021/11/27 02:01:00;;;;;;;10.43;5.82;;;;;;;-1.86;100.00;94153.28;4964529;28;20050;-62
2021/11/27 02:03:25;;;;;;;8.40;5.30;;;;;;;-2.01;100.00;94146.03;4955744;28;20046;-60
2021/11/27 02:05:51;;;;;;;9.70;4.90;;;;;;;-2.20;100.00;94149.44;4957692;28;20034;-58
2021/11/27 02:08:17;;;;;;;8.50;5.70;;;;;;;-2.40;100.00;94138.63;4957136;28;20419;-59
2021/11/27 02:10:44;;;;;;;8.98;5.05;;;;;;;-2.46;100.00;94141.94;4964098;28;20064;-59
2021/11/27 02:13:11;;;;;;;11.55;5.85;;;;;;;-2.45;100.00;94135.44;4957545;28;20141;-63
2021/11/27 02:15:37;;;;;;;13.00;6.38;;;;;;;-2.58;100.00;94130.16;4960051;28;20042;-60
2021/11/27 02:18:03;;;;;;;13.75;7.18;;;;;;;-2.68;100.00;94119.97;4972225;28;20053;-67
2021/11/27 02:20:38;;;;;;;13.40;6.85;;;;;;;-2.75;100.00;94112.50;4951493;28;20042;-62
2021/11/27 02:23:04;;;;;;;15.00;7.88;;;;;;;-2.83;100.00;94110.75;4958334;28;20035;-67
2021/11/27 02:25:31;;;;;;;13.45;7.15;;;;;;;-2.85;100.00;94118.38;4961044;28;20115;-63
2021/11/27 02:27:58;;;;;;;17.65;7.00;;;;;;;-2.89;100.00;94114.81;4967206;28;20851;-61
2021/11/27 02:30:23;;;;;;;17.10;7.22;;;;;;;-2.97;100.00;94113.88;4958161;28;20058;-61
2021/11/27 02:32:50;;;;;;;16.48;7.82;;;;;;;-3.07;100.00;94119.72;4963496;28;20047;-59
2021/11/27 02:35:16;;;;;;;15.20;7.97;;;;;;;-3.13;100.00;94115.75;4969666;28;20108;-64
2021/11/27 02:37:42;;;;;;;16.63;7.95;;;;;;;-3.14;100.00;94108.81;4957513;28;20121;-61
2021/11/27 02:40:08;;;;;;;13.85;6.80;;;;;;;-3.14;100.00;94108.81;4963398;28;20042;-59
2021/11/27 02:42:34;;;;;;;11.73;6.82;;;;;;;-2.98;100.00;94111.53;4961462;28;20047;-63
2021/11/27 02:45:00;;;;;;;12.05;7.13;;;;;;;-2.80;100.00;94103.94;4963839;28;20645;-64
2021/11/27 02:47:25;;;;;;;12.48;6.43;;;;;;;-2.74;100.00;94105.25;4956454;28;20050;-60
2021/11/27 02:49:51;;;;;;;11.00;6.63;;;;;;;-2.65;100.00;94094.38;4945154;28;20395;-60
2021/11/27 02:52:16;;;;;;;13.63;6.45;;;;;;;-2.53;100.00;94103.09;4958181;28;20178;-62
2021/11/27 02:54:42;;;;;;;12.00;6.47;;;;;;;-2.66;100.00;94093.59;4962700;28;20121;-63
2021/11/27 02:57:07;;;;;;;10.90;6.55;;;;;;;-2.83;100.00;94085.88;4968955;28;20093;-59
2021/11/27 02:59:34;;;;;;;13.60;7.13;;;;;;;-2.95;100.00;94082.16;4965194;28;20396;-60
2021/11/27 03:02:01;;;;;;;11.55;7.22;;;;;;;-3.00;100.00;94082.41;4971686;28;20043;-62
2021/11/27 03:04:30;;;;;;;19.20;7.28;;;;;;;-2.80;100.00;94082.53;4968338;28;20039;-63
2021/11/27 03:06:56;;;;;;;11.98;6.68;;;;;;;-2.63;100.00;94078.72;4967245;28;20043;-59
2021/11/27 03:09:22;;;;;;;11.07;6.43;;;;;;;-2.36;100.00;94080.53;4955981;28;20141;-59
2021/11/27 03:11:51;;;;;;;14.18;7.78;;;;;;;-2.18;100.00;94093.53;4961416;28;20543;-62
2021/11/27 03:14:18;;;;;;;10.52;5.97;;;;;;;-1.98;100.00;94097.84;4958706;28;20543;-62
2021/11/27 03:16:44;;;;;;;11.48;6.05;;;;;;;-1.84;100.00;94094.66;4965153;28;20129;-59
2021/11/27 03:19:10;;;;;;;9.07;5.38;;;;;;;-1.77;100.00;94100.19;4960437;28;20129;-61
2021/11/27 03:21:36;;;;;;;10.23;5.10;;;;;;;-1.66;100.00;94103.09;4959091;28;20054;-60
2021/11/27 03:24:02;;;;;;;11.15;5.97;;;;;;;-1.59;100.00;94097.88;4960741;28;20126;-61
2021/11/27 03:26:28;;;;;;;9.68;5.28;;;;;;;-1.56;100.00;94094.50;4964691;28;20047;-64
2021/11/27 03:28:54;;;;;;;7.18;4.82;;;;;;;-1.50;100.00;94104.97;4959412;28;20073;-63
2021/11/27 03:31:19;;;;;;;10.25;5.30;;;;;;;-1.54;100.00;94094.16;4948754;28;20037;-64
2021/11/27 03:33:45;;;;;;;9.05;4.78;;;;;;;-1.44;100.00;94098.16;4961454;28;20045;-62
2021/11/27 03:36:10;;;;;;;8.40;5.15;;;;;;;-1.35;100.00;94101.44;4963542;28;20050;-61
2021/11/27 03:38:36;;;;;;;8.40;4.93;;;;;;;-1.27;100.00;94097.75;4957741;28;20062;-62
2021/11/27 03:41:03;;;;;;;10.00;5.00;;;;;;;-1.42;100.00;94104.75;4971153;28;20043;-60
2021/11/27 03:43:29;;;;;;;9.35;5.22;;;;;;;-1.51;100.00;94104.19;4960353;28;20067;-63
2021/11/27 03:45:55;;;;;;;9.50;5.63;;;;;;;-1.76;100.00;94103.66;4965241;28;20067;-61
2021/11/27 03:48:33;;;;;;;8.35;4.60;;;;;;;-1.77;100.00;94112.84;4955227;28;20508;-63
2021/11/27 03:51:01;;;;;;;12.13;5.50;;;;;;;-1.65;100.00;94112.72;4964554;28;20444;-63
2021/11/27 03:53:31;;;;;;;7.78;4.95;;;;;;;-1.61;100.00;94118.94;4954260;28;20073;-62
2021/11/27 03:55:58;;;;;;;10.43;5.45;;;;;;;-1.51;100.00;94127.56;4963914;28;20043;-61
2021/11/27 03:58:24;;;;;;;11.00;5.68;;;;;;;-1.49;100.00;94112.66;4957761;28;20054;-63
2021/11/27 04:00:52;;;;;;;11.70;5.55;;;;;;;-1.50;100.00;94105.72;4963781;28;20049;-62
2021/11/27 04:03:19;;;;;;;10.45;5.63;;;;;;;-1.53;100.00;94109.13;4955208;28;20408;-63
2021/11/27 04:05:51;;;;;;;11.30;6.03;;;;;;;-1.55;100.00;94106.00;4958680;28;20137;-63
2021/11/27 04:08:18;;;;;;;9.05;5.55;;;;;;;-1.48;100.00;94086.59;4954595;28;20164;-62
2021/11/27 04:10:44;;;;;;;9.02;6.15;;;;;;;-1.41;100.00;94092.88;4965952;28;20558;-62
2021/11/27 04:13:10;;;;;;;10.48;6.00;;;;;;;-1.36;100.00;94097.97;4951186;28;20051;-61
2021/11/27 04:15:36;;;;;;;11.32;6.10;;;;;;;-1.30;100.00;94092.31;4963434;28;20054;-62
2021/11/27 04:18:01;;;;;;;9.25;5.85;;;;;;;-1.12;100.00;94098.78;4964020;28;20555;-61
2021/11/27 04:20:27;;;;;;;9.27;5.43;;;;;;;-0.99;100.00;94097.50;4952209;28;20053;-62
2021/11/27 04:22:53;;;;;;;9.32;5.45;;;;;;;-0.92;100.00;94096.06;4962903;28;20031;-62
2021/11/27 04:25:19;;;;;;;8.10;4.85;;;;;;;-0.79;100.00;94102.84;4966911;28;20519;-59
2021/11/27 04:27:44;;;;;;;7.30;5.03;;;;;;;-0.74;100.00;94107.91;4959391;28;20137;-57
2021/11/27 04:30:14;;;;;;;11.18;6.07;;;;;;;-0.68;100.00;94109.19;4957202;28;20039;-62
2021/11/27 04:32:41;;;;;;;8.95;5.57;;;;;;;-0.46;100.00;94121.06;4974137;28;20042;-57
2021/11/27 04:35:07;;;;;;;8.90;5.72;;;;;;;-0.40;100.00;94118.84;4956141;28;20130;-66
2021/11/27 04:37:33;;;;;;;7.43;4.78;;;;;;;-0.39;100.00;94120.44;4957915;28;20043;-58
2021/11/27 04:39:58;;;;;;;10.32;6.03;;;;;;;-0.08;100.00;94103.22;4961292;28;20050;-60
2021/11/27 04:42:24;;;;;;;10.52;5.63;;;;;;;-0.01;100.00;94094.50;4955247;28;20356;-61
2021/11/27 04:44:49;;;;;;;9.70;6.38;;;;;;;-0.02;100.00;94101.78;4961207;28;20387;-57
2021/11/27 04:47:15;;;;;;;10.95;6.20;;;;;;;0.27;100.00;94096.81;4956184;28;20543;-62
2021/11/27 04:49:41;;;;;;;11.68;6.57;;;;;;;0.26;100.00;94095.25;4960391;28;20508;-63
2021/11/27 04:52:07;;;;;;;11.70;6.70;;;;;;;0.35;100.00;94086.91;4955793;28;20035;-65
2021/11/27 04:54:34;;;;;;;11.10;6.45;;;;;;;0.32;100.00;94074.94;4949879;28;20047;-58
2021/11/27 04:57:01;;;;;;;13.05;6.72;;;;;;;0.31;100.00;94075.31;4970690;28;20042;-58
2021/11/27 04:59:26;;;;;;;11.38;6.72;;;;;;;0.34;100.00;94079.97;4951374;28;20118;-60
2021/11/27 05:01:52;;;;;;;10.93;6.28;;;;;;;0.55;100.00;94098.31;4960674;28;20142;-60
2021/11/27 05:04:17;;;;;;;10.27;6.95;;;;;;;0.64;100.00;94093.41;4957741;28;20141;-58
2021/11/27 05:06:43;;;;;;;10.07;5.95;;;;;;;0.88;100.00;94111.03;4963721;28;20138;-59
2021/11/27 05:09:10;;;;;;;13.35;7.30;;;;;;;0.70;100.00;94115.41;4957742;28;20052;-61
2021/11/27 05:11:35;;;;;;;13.23;7.05;;;;;;;0.69;100.00;94128.13;4956088;28;20399;-60
2021/11/27 05:14:01;;;;;;;13.25;6.25;;;;;;;0.87;100.00;94141.06;4960273;28;20051;-60
2021/11/27 05:16:28;;;;;;;10.93;6.10;;;;;;;0.87;100.00;94141.81;4965753;28;20047;-62
2021/11/27 05:18:53;;;;;;;9.85;6.35;;;;;;;0.81;100.00;94132.53;4968442;28;20034;-60
2021/11/27 05:21:19;;;;;;;10.55;5.72;;;;;;;0.66;100.00;94122.69;4956803;28;20042;-58
2021/11/27 05:23:45;;;;;;;9.43;5.95;;;;;;;0.63;100.00;94107.25;4957906;28;20039;-57
2021/11/27 05:26:11;;;;;;;10.85;6.15;;;;;;;0.50;100.00;94112.09;4955292;28;20043;-65
2021/11/27 05:28:37;;;;;;;9.40;5.88;;;;;;;0.76;100.00;94109.34;4960876;28;20047;-59
2021/11/27 05:31:02;;;;;;;10.38;5.82;;;;;;;0.81;100.00;94123.63;4960648;28;20137;-66
2021/11/27 05:36:14;;;;;;;9.38;6.10;;;;;;;0.92;100.00;94111.84;4949748;28;20039;-61
2021/11/27 05:38:39;;;;;;;10.48;6.38;;;;;;;1.05;100.00;94117.78;4962508;28;20388;-59
2021/11/27 05:41:06;;;;;;;10.63;5.85;;;;;;;0.95;100.00;94124.59;4956352;28;20042;-64
2021/11/27 05:43:32;;;;;;;12.05;5.75;;;;;;;0.90;100.00;94129.53;4961334;28;20439;-59
2021/11/27 05:45:58;;;;;;;8.75;5.70;;;;;;;0.91;100.00;94142.63;4960156;28;20110;-62
2021/11/27 05:48:23;;;;;;;10.25;4.88;;;;;;;1.07;100.00;94149.75;4950955;28;20200;-60
2021/11/27 05:50:49;;;;;;;9.43;6.05;;;;;;;1.17;100.00;94151.81;4961549;28;20035;-61
2021/11/27 05:53:18;;;;;;;10.15;5.00;;;;;;;1.09;100.00;94142.84;4965665;28;20039;-64
2021/11/27 05:55:46;;;;;;;8.23;4.85;;;;;;;1.04;100.00;94153.19;4962151;28;20057;-61
2021/11/27 05:58:12;;;;;;;9.88;5.50;;;;;;;0.91;100.00;94144.56;4957405;28;20038;-60
2021/11/27 06:00:37;;;;;;;8.55;5.45;;;;;;;0.84;100.00;94142.53;4969251;28;20051;-62
2021/11/27 06:03:03;;;;;;;10.27;5.22;;;;;;;0.77;100.00;94142.47;4956601;28;20146;-66
2021/11/27 06:05:29;;;;;;;8.55;6.20;;;;;;;0.82;100.00;94144.06;4966132;28;20043;-63
2021/11/27 06:07:55;;;;;;;7.70;5.38;;;;;;;0.92;100.00;94136.09;4962875;28;20071;-62
2021/11/27 06:10:21;;;;;;;9.15;5.95;;;;;;;1.00;100.00;94134.25;4953659;28;20046;-57
2021/11/27 06:12:46;;;;;;;11.85;5.93;;;;;;;1.04;100.00;94137.75;4961294;28;20122;-60
2021/11/27 06:15:12;;;;;;;10.13;6.43;;;;;;;1.20;100.00;94137.56;4957281;28;20047;-58
2021/11/27 06:17:38;;;;;;;10.68;5.70;;;;;;;1.32;100.00;94153.50;4960962;28;20087;-60
2021/11/27 06:20:04;;;;;;;8.25;5.57;;;;;;;1.27;100.00;94156.50;4959394;28;20496;-64
2021/11/27 06:22:30;;;;;;;8.60;5.57;;;;;;;1.39;100.00;94160.09;4958008;28;20811;-63
2021/11/27 06:24:55;;;;;;;9.85;5.85;;;;;;;1.25;100.00;94156.13;4956083;28;20066;-62
2021/11/27 06:27:21;;;;;;;9.38;5.53;;;;;;;1.07;100.00;94155.91;4952317;28;20070;-64
2021/11/27 06:29:46;;;;;;;8.52;5.30;;;;;;;1.24;100.00;94154.56;4966521;28;20046;-61
2021/11/27 06:32:12;;;;;;;9.90;5.60;;;;;;;1.09;100.00;94166.34;4948953;28;20073;-64
2021/11/27 06:34:39;;;;;;;10.55;5.90;;;;;;;0.99;100.00;94158.88;4962352;28;20038;-63
2021/11/27 06:37:05;;;;;;;8.82;4.82;;;;;;;0.99;100.00;94153.50;4955778;28;20058;-64
2021/11/27 06:39:35;;;;;;;10.88;5.57;;;;;;;1.04;100.00;94153.94;4954004;28;20083;-65
2021/11/27 06:42:05;;;;;;;12.93;5.82;;;;;;;1.04;100.00;94151.25;4964278;28;20141;-61
2021/11/27 06:44:31;;;;;;;13.27;6.15;;;;;;;1.02;100.00;94158.94;4937880;28;20054;-65
2021/11/27 06:46:57;;;;;;;13.30;6.43;;;;;;;0.98;100.00;94157.34;4948037;28;20035;-63
2021/11/27 06:49:23;;;;;;;10.15;6.57;;;;;;;1.01;100.00;94154.69;4926510;28;20390;-61
2021/11/27 06:51:49;;;;;;;11.38;6.13;;;;;;;1.01;100.00;94153.91;4947688;28;20042;-68
2021/11/27 06:54:24;;;;;;;9.23;5.57;;;;;;;1.01;100.00;94157.41;4934287;28;20509;-63
2021/11/27 06:56:51;;;;;;;9.13;5.38;;;;;;;0.94;100.00;94149.22;4941819;28;20054;-63
2021/11/27 06:59:17;;;;;;;9.10;5.20;;;;;;;1.01;100.00;94162.78;4937446;28;20047;-63
2021/11/27 07:01:42;;;;;;;13.02;7.55;;;;;;;1.04;100.00;94153.94;4941450;28;20424;-63
2021/11/27 07:04:08;;;;;;;10.85;6.53;;;;;;;1.01;100.00;94149.31;4937505;28;20050;-63
2021/11/27 07:06:33;;;;;;;11.88;6.85;;;;;;;1.00;100.00;94163.91;4943178;28;20197;-63
2021/11/27 07:08:59;;;;;;;12.65;7.28;;;;;;;1.07;100.00;94153.22;4940712;28;20047;-64
2021/11/27 07:11:24;;;;;;;9.77;6.95;;;;;;;1.26;100.00;94171.16;4934099;28;20078;-61
2021/11/27 07:13:50;;;;;;;10.98;6.25;;;;;;;1.34;100.00;94177.41;4936517;28;20048;-64
2021/11/27 07:16:15;;;;;;;10.85;6.60;;;;;;;1.29;100.00;94172.34;4934574;28;20040;-65
2021/11/27 07:18:41;;;;;;;11.82;6.72;;;;;;;1.30;100.00;94192.78;4935135;28;20047;-65
2021/11/27 07:21:06;;;;;;;10.32;5.60;;;;;;;1.32;100.00;94185.84;4943446;28;20496;-64
2021/11/27 07:23:32;;;;;;;8.77;6.00;;;;;;;1.37;100.00;94186.66;4941637;28;20067;-63
2021/11/27 07:25:57;;;;;;;9.88;5.97;;;;;;;1.29;100.00;94197.38;4940155;28;20039;-63
2021/11/27 07:28:23;;;;;;;10.77;5.93;;;;;;;1.20;100.00;94202.28;4943794;28;20419;-64
2021/11/27 07:30:48;;;;;;;8.25;5.53;;;;;;;1.22;100.00;94208.06;4940224;28;20504;-64
2021/11/27 07:33:14;;;;;;;8.35;5.80;;;;;;;1.23;100.00;94203.47;4934660;28;20039;-63
2021/11/27 07:35:39;;;;;;;11.68;7.88;;;;;;;1.37;100.00;94213.63;4941355;28;20508;-65
2021/11/27 07:38:05;;;;;;;10.82;6.85;;;;;;;1.51;100.00;94214.59;4933501;28;20059;-61
2021/11/27 07:40:30;;;;;;;9.05;5.30;;;;;;;1.40;100.00;94221.00;4940517;28;20187;-62
2021/11/27 07:42:57;;;;;;;7.95;5.20;;;;;;;1.44;100.00;94228.00;4941755;28;20054;-64
2021/11/27 07:45:23;;;;;;;11.00;6.95;;;;;;;1.47;100.00;94221.84;4936920;28;20995;-64
2021/11/27 07:47:49;;;;;;;11.23;6.82;;;;;;;1.50;100.00;94231.13;4944782;28;20067;-64
2021/11/27 07:50:15;;;;;;;8.82;5.35;;;;;;;1.70;100.00;94229.81;4938461;28;20452;-63
2021/11/27 07:52:41;;;;;;;8.13;4.88;;;;;;;1.66;100.00;94241.72;4944902;28;20586;-62
2021/11/27 07:55:08;;;;;;;8.93;5.22;;;;;;;1.59;100.00;94242.41;4945419;28;20039;-61
2021/11/27 07:57:33;;;;;;;7.22;4.82;;;;;;;1.68;100.00;94244.81;4945732;28;20079;-61
2021/11/27 07:59:59;;;;;;;12.00;5.15;;;;;;;1.63;100.00;94239.75;4943176;29;20078;-60
2021/11/27 08:02:24;;;;;;;7.53;4.38;;;;;;;1.71;100.00;94235.97;4927872;28;20043;-62
2021/11/27 08:04:49;;;;;;;7.30;4.38;;;;;;;1.61;100.00;94242.03;4940963;28;20062;-62
2021/11/27 08:07:15;;;;;;;8.52;5.50;;;;;;;1.60;100.00;94233.16;4939352;28;20078;-61
2021/11/27 08:09:40;;;;;;;8.13;4.90;;;;;;;1.71;100.00;94242.16;4944506;28;20043;-62
2021/11/27 08:12:06;;;;;;;8.70;4.95;;;;;;;1.50;100.00;94242.69;4937777;28;20050;-61
2021/11/27 08:14:32;;;;;;;9.20;4.65;;;;;;;1.69;100.00;94246.34;4941970;28;20400;-61
2021/11/27 08:17:01;;;;;;;6.30;4.35;;;;;;;1.66;100.00;94252.50;4942802;28;20042;-64
2021/11/27 08:19:28;;;;;;;7.53;4.88;;;;;;;1.63;100.00;94247.84;4932870;28;20134;-62
2021/11/27 08:21:55;;;;;;;6.90;4.20;;;;;;;1.75;100.00;94242.19;4949675;28;20042;-62
2021/11/27 08:24:21;;;;;;;6.85;4.82;;;;;;;1.77;100.00;94239.13;4923507;28;20061;-63
2021/11/27 08:26:47;;;;;;;6.55;4.40;;;;;;;1.82;100.00;94246.88;4943165;28;20043;-63
2021/11/27 08:29:12;;;;;;;8.95;5.47;;;;;;;1.77;100.00;94239.13;4944988;28;20039;-63
2021/11/27 08:31:39;;;;;;;7.80;5.78;;;;;;;1.78;100.00;94238.75;4951878;28;20043;-63
2021/11/27 08:34:05;;;;;;;7.47;5.03;;;;;;;1.71;100.00;94233.28;4940593;28;20113;-61
2021/11/27 08:36:30;;;;;;;11.65;5.70;;;;;;;1.70;100.00;94232.50;4940204;28;20719;-62
2021/11/27 08:38:56;;;;;;;15.70;9.10;;;;;;;1.63;100.00;94229.72;4940727;28;20086;-64
2021/11/27 08:41:21;;;;;;;10.30;6.93;;;;;;;1.62;100.00;94219.31;4938144;28;20200;-65
2021/11/27 08:43:47;;;;;;;10.13;7.10;;;;;;;1.52;100.00;94224.22;4943570;28;20047;-64
2021/11/27 08:46:12;;;;;;;11.80;7.35;;;;;;;1.41;100.00;94231.41;4936868;28;20081;-60
2021/11/27 08:48:38;;;;;;;13.13;9.02;;;;;;;1.24;100.00;94238.16;4941269;28;20126;-63
2021/11/27 08:51:06;;;;;;;14.55;8.80;;;;;;;1.39;100.00;94239.09;4943715;28;20047;-61
2021/11/27 08:53:31;;;;;;;12.65;7.63;;;;;;;1.59;100.00;94236.25;4939511;28;20049;-62
2021/11/27 08:55:57;;;;;;;13.73;7.60;;;;;;;1.65;100.00;94232.06;4941053;29;20079;-62
2021/11/27 08:58:23;;;;;;;9.07;6.10;;;;;;;1.65;100.00;94227.44;4937055;28;20592;-62
2021/11/27 09:00:48;;;;;;;40.30;25.05;;;;;;;1.32;100.00;94226.31;4942794;28;20087;-63
2021/11/27 09:03:14;;;;;;;13.57;7.22;;;;;;;1.26;100.00;94221.59;4938163;28;20631;-62
2021/11/27 09:05:39;;;;;;;8.77;5.82;;;;;;;1.32;100.00;94229.00;4940272;28;20054;-62
2021/11/27 09:08:05;;;;;;;10.48;7.50;;;;;;;1.25;100.00;94223.53;4938542;28;20046;-62
2021/11/27 09:10:30;;;;;;;12.18;8.25;;;;;;;1.40;100.00;94232.56;4944101;28;20039;-63
2021/11/27 09:12:56;;;;;;;15.40;8.63;;;;;;;1.86;100.00;94239.59;4942127;28;20571;-63
2021/11/27 09:15:21;;;;;;;12.50;7.05;;;;;;;2.16;100.00;94246.81;4938145;28;21446;-63
2021/11/27 09:17:47;;;;;;;8.45;5.35;;;;;;;2.13;100.00;94255.69;4942419;28;20365;-64
2021/11/27 09:20:12;;;;;;;7.70;4.85;;;;;;;2.08;100.00;94259.47;4935851;28;20085;-64
2021/11/27 09:22:38;;;;;;;7.75;4.97;;;;;;;2.17;100.00;94270.75;4941268;29;20078;-63
2021/11/27 09:25:05;;;;;;;8.15;5.60;;;;;;;2.28;100.00;94276.25;4934824;28;20408;-62
2021/11/27 09:27:30;;;;;;;20.80;11.57;;;;;;;2.44;100.00;94278.72;4943049;28;20039;-64
2021/11/27 09:29:56;;;;;;;11.95;6.70;;;;;;;2.42;100.00;94276.38;4942444;28;20514;-62
2021/11/27 09:32:22;;;;;;;9.70;6.35;;;;;;;2.48;100.00;94272.19;4933834;28;20062;-64
2021/11/27 09:34:48;;;;;;;8.43;5.13;;;;;;;2.60;100.00;94256.84;4940882;28;20055;-64
2021/11/27 09:37:16;;;;;;;8.60;5.65;;;;;;;2.63;100.00;94266.91;4935880;28;20515;-62
2021/11/27 09:39:43;;;;;;;8.13;5.75;;;;;;;2.82;100.00;94260.47;4941646;28;20047;-64
2021/11/27 09:42:12;;;;;;;10.63;6.43;;;;;;;2.42;100.00;94257.47;4932713;28;20159;-64
2021/11/27 09:44:38;;;;;;;;;;;;;;;2.25;100.00;94258.09;4939889;29;20110;-63
2021/11/27 09:47:05;;;;;;;13.30;7.25;;;;;;;2.37;100.00;94265.91;4938144;28;19922;-62
2021/11/27 09:49:31;;;;;;;12.48;7.47;;;;;;;2.53;100.00;94270.28;4942169;28;20171;-63
2021/11/27 09:51:56;;;;;;;9.88;5.80;;;;;;;2.63;100.00;94283.13;4942996;28;20512;-63
2021/11/27 09:54:23;;;;;;;13.43;8.07;;;;;;;2.58;100.00;94283.47;4935186;28;20839;-63
2021/11/27 09:56:49;;;;;;;11.77;6.68;;;;;;;2.31;100.00;94280.91;4940308;28;20404;-65
2021/11/27 09:59:16;;;;;;;9.65;6.05;;;;;;;1.83;100.00;94272.72;4933954;28;20082;-64
2021/11/27 10:01:50;;;;;;;10.70;6.68;;;;;;;1.72;100.00;94276.09;4942051;28;20058;-62
2021/11/27 10:04:17;;;;;;;15.45;8.40;;;;;;;1.72;100.00;94288.81;4938950;28;20113;-64
2021/11/27 10:06:45;;;;;;;12.13;7.38;;;;;;;1.63;100.00;94291.78;4945258;28;20047;-62
2021/11/27 10:09:13;;;;;;;12.60;8.20;;;;;;;1.85;100.00;94281.22;4938497;28;20146;-63
2021/11/27 10:11:40;;;;;;;14.43;8.02;;;;;;;1.89;100.00;94277.44;4945417;28;20432;-63
2021/11/27 10:14:05;;;;;;;14.23;8.77;;;;;;;2.20;100.00;94275.41;4938981;28;20056;-62
2021/11/27 10:16:33;;;;;;;14.60;7.90;;;;;;;2.16;100.00;94268.41;4944082;28;20058;-62
2021/11/27 10:19:11;;;;;;;12.10;7.97;;;;;;;2.27;100.00;94278.19;4937892;28;20035;-64
2021/11/27 10:21:39;;;;;;;12.70;7.45;;;;;;;2.44;100.00;94276.00;4942002;28;20504;-63
2021/11/27 10:24:23;;;;;;;11.02;6.78;;;;;;;2.64;100.00;94273.84;4936014;28;20043;-62
2021/11/27 10:26:50;;;;;;;15.75;11.05;;;;;;;2.58;100.00;94267.25;4924598;29;20069;-64
2021/11/27 10:29:35;;;;;;;16.92;10.48;;;;;;;2.42;100.00;94262.09;4932388;28;20047;-64
2021/11/27 10:32:16;;;;;;;31.38;13.63;;;;;;;2.22;100.00;94256.16;4941977;28;20043;-63
2021/11/27 10:34:51;;;;;;;15.30;7.18;;;;;;;2.32;100.00;94262.78;4942240;28;20493;-64
2021/11/27 10:37:42;;;;;;;12.65;6.75;;;;;;;2.28;100.00;94268.16;4937255;28;20054;-63
2021/11/27 10:40:18;;;;;;;10.63;6.25;;;;;;;2.39;100.00;94273.66;4943882;28;20054;-64
2021/11/27 10:43:00;;;;;;;13.80;7.30;;;;;;;2.48;100.00;94274.09;4946387;28;20086;-64
2021/11/27 10:45:34;;;;;;;15.48;8.20;;;;;;;2.65;100.00;94270.78;4912158;28;20051;-64
2021/11/27 10:48:14;;;;;;;11.02;6.65;;;;;;;2.85;100.00;94267.81;4942094;28;20485;-64
2021/11/27 10:50:47;;;;;;;13.75;7.68;;;;;;;2.96;100.00;94265.97;4941557;28;20459;-64
2021/11/27 10:53:15;;;;;;;10.90;6.47;;;;;;;2.95;100.00;94277.16;4935008;28;20061;-62
2021/11/27 10:55:41;;;;;;;20.92;7.45;;;;;;;3.06;100.00;94270.66;4937123;28;20137;-65
2021/11/27 10:58:09;;;;;;;13.00;8.45;;;;;;;3.24;100.00;94270.75;4935771;28;20043;-62
2021/11/27 11:00:43;;;;;;;16.38;9.02;;;;;;;3.39;100.00;94260.00;4940712;28;20050;-64
2021/11/27 11:03:33;;;;;;;12.93;8.57;;;;;;;3.83;100.00;94262.50;4936361;28;20086;-64
2021/11/27 11:06:20;;;;;;;8.20;5.38;;;;;;;4.42;100.00;94271.50;4938964;28;20043;-64
2021/11/27 11:08:49;;;;;;;7.30;3.65;;;;;;;4.61;97.09;94273.84;4934671;28;20043;-64
2021/11/27 11:11:20;;;;;;;5.47;3.20;;;;;;;4.52;94.43;94281.56;4935240;28;20106;-64
2021/11/27 11:13:52;;;;;;;4.80;3.08;;;;;;;4.43;95.28;94279.25;4941152;28;20047;-64
2021/11/27 11:16:18;;;;;;;4.40;2.92;;;;;;;4.37;96.55;94284.25;4934039;28;20514;-63
2021/11/27 11:18:44;;;;;;;5.78;3.25;;;;;;;4.47;98.02;94284.69;4941683;28;20047;-68
2021/11/27 11:21:10;;;;;;;4.72;2.63;;;;;;;4.54;96.91;94285.44;4936217;28;20062;-63
2021/11/27 11:23:38;;;;;;;3.55;2.30;;;;;;;4.87;89.67;94280.78;4940539;28;20043;-63
2021/11/27 11:26:06;;;;;;;5.72;2.78;;;;;;;4.96;87.60;94283.88;4938481;28;20444;-62
2021/11/27 11:28:44;;;;;;;4.32;2.30;;;;;;;4.88;87.55;94278.84;4918014;28;20039;-67